sensor_id;sensor_type;location;lat;lon;timestamp;P1;durP1;ratioP1;P2;durP2;ratioP2
10399;SDS011;10031;51.180;17.168;2023-04-15T00:00:22;21.53;;;11.00;;
10399;SDS011;10031;51.180;17.168;2023-04-15T00:02:48;19.13;;;12.60;;
10399;SDS011;10031;51.180;17.168;2023-04-15T00:05:14;19.40;;;14.33;;
10399;SDS011;10031;51.180;17.168;2023-04-15T00:07:40;14.33;;;10.37;;
10399;SDS011;10031;51.180;17.168;2023-04-15T00:10:13;13.27;;;8.33;;
10399;SDS011;10031;51.180;17.168;2023-04-15T00:12:39;18.50;;;13.33;;
10399;SDS011;10031;51.180;17.168;2023-04-15T00:15:05;17.80;;;12.67;;
10399;SDS011;10031;51.180;17.168;2023-04-15T00:17:34;17.70;;;13.03;;
10399;SDS011;10031;51.180;17.168;2023-04-15T00:20:03;18.27;;;11.80;;
10399;SDS011;10031;51.180;17.168;2023-04-15T00:22:33;18.50;;;12.67;;
10399;SDS011;10031;51.180;17.168;2023-04-15T00:25:00;17.27;;;11.47;;
10399;SDS011;10031;51.180;17.168;2023-04-15T00:27:28;17.17;;;12.47;;
10399;SDS011;10031;51.180;17.168;2023-04-15T00:29:54;18.10;;;13.07;;
10399;SDS011;10031;51.180;17.168;2023-04-15T00:32:21;16.70;;;11.47;;
10399;SDS011;10031;51.180;17.168;2023-04-15T00:34:48;16.20;;;11.37;;
10399;SDS011;10031;51.180;17.168;2023-04-15T00:37:15;15.50;;;7.87;;
10399;SDS011;10031;51.180;17.168;2023-04-15T00:39:43;14.53;;;11.13;;
10399;SDS011;10031;51.180;17.168;2023-04-15T00:42:09;14.90;;;11.67;;
10399;SDS011;10031;51.180;17.168;2023-04-15T00:44:36;16.30;;;12.70;;
10399;SDS011;10031;51.180;17.168;2023-04-15T00:47:01;16.97;;;14.27;;
10399;SDS011;10031;51.180;17.168;2023-04-15T00:49:30;16.93;;;11.90;;
10399;SDS011;10031;51.180;17.168;2023-04-15T00:51:57;16.63;;;10.97;;
10399;SDS011;10031;51.180;17.168;2023-04-15T00:54:23;18.57;;;12.57;;
10399;SDS011;10031;51.180;17.168;2023-04-15T00:56:49;18.80;;;13.80;;
10399;SDS011;10031;51.180;17.168;2023-04-15T00:59:15;14.37;;;12.33;;
10399;SDS011;10031;51.180;17.168;2023-04-15T01:01:44;20.17;;;13.20;;
10399;SDS011;10031;51.180;17.168;2023-04-15T01:04:10;18.57;;;13.77;;
10399;SDS011;10031;51.180;17.168;2023-04-15T01:06:38;24.53;;;14.73;;
10399;SDS011;10031;51.180;17.168;2023-04-15T01:09:05;20.70;;;13.63;;
10399;SDS011;10031;51.180;17.168;2023-04-15T01:11:31;21.47;;;14.57;;
10399;SDS011;10031;51.180;17.168;2023-04-15T01:14:00;20.67;;;14.70;;
10399;SDS011;10031;51.180;17.168;2023-04-15T01:16:27;15.73;;;12.73;;
10399;SDS011;10031;51.180;17.168;2023-04-15T01:18:53;17.97;;;12.13;;
10399;SDS011;10031;51.180;17.168;2023-04-15T01:21:20;21.43;;;13.67;;
10399;SDS011;10031;51.180;17.168;2023-04-15T01:23:47;20.47;;;13.47;;
10399;SDS011;10031;51.180;17.168;2023-04-15T01:26:15;20.87;;;14.60;;
10399;SDS011;10031;51.180;17.168;2023-04-15T01:28:42;24.57;;;16.00;;
10399;SDS011;10031;51.180;17.168;2023-04-15T01:31:12;20.70;;;14.63;;
10399;SDS011;10031;51.180;17.168;2023-04-15T01:33:41;20.73;;;16.00;;
10399;SDS011;10031;51.180;17.168;2023-04-15T01:36:09;25.93;;;16.23;;
10399;SDS011;10031;51.180;17.168;2023-04-15T01:38:35;21.03;;;17.80;;
10399;SDS011;10031;51.180;17.168;2023-04-15T01:41:03;22.27;;;17.40;;
10399;SDS011;10031;51.180;17.168;2023-04-15T01:43:31;22.00;;;17.57;;
10399;SDS011;10031;51.180;17.168;2023-04-15T01:45:57;19.97;;;15.40;;
10399;SDS011;10031;51.180;17.168;2023-04-15T01:48:23;23.67;;;15.93;;
10399;SDS011;10031;51.180;17.168;2023-04-15T01:50:51;20.10;;;15.97;;
10399;SDS011;10031;51.180;17.168;2023-04-15T01:53:21;24.40;;;19.20;;
10399;SDS011;10031;51.180;17.168;2023-04-15T01:55:50;24.07;;;17.20;;
10399;SDS011;10031;51.180;17.168;2023-04-15T01:58:17;23.60;;;18.27;;
10399;SDS011;10031;51.180;17.168;2023-04-15T02:00:43;27.70;;;16.53;;
10399;SDS011;10031;51.180;17.168;2023-04-15T02:03:10;24.20;;;17.27;;
10399;SDS011;10031;51.180;17.168;2023-04-15T02:05:39;22.17;;;18.20;;
10399;SDS011;10031;51.180;17.168;2023-04-15T02:08:08;19.93;;;15.53;;
10399;SDS011;10031;51.180;17.168;2023-04-15T02:10:41;23.43;;;15.40;;
10399;SDS011;10031;51.180;17.168;2023-04-15T02:13:13;24.10;;;17.70;;
10399;SDS011;10031;51.180;17.168;2023-04-15T02:15:46;21.20;;;16.03;;
10399;SDS011;10031;51.180;17.168;2023-04-15T02:18:12;22.17;;;15.90;;
10399;SDS011;10031;51.180;17.168;2023-04-15T02:20:39;22.40;;;16.13;;
10399;SDS011;10031;51.180;17.168;2023-04-15T02:23:05;22.07;;;16.70;;
10399;SDS011;10031;51.180;17.168;2023-04-15T02:25:32;23.70;;;16.13;;
10399;SDS011;10031;51.180;17.168;2023-04-15T02:27:59;20.47;;;15.97;;
10399;SDS011;10031;51.180;17.168;2023-04-15T02:30:26;22.73;;;16.27;;
10399;SDS011;10031;51.180;17.168;2023-04-15T02:32:55;28.50;;;16.50;;
10399;SDS011;10031;51.180;17.168;2023-04-15T02:35:20;22.07;;;16.03;;
10399;SDS011;10031;51.180;17.168;2023-04-15T02:37:50;25.23;;;16.73;;
10399;SDS011;10031;51.180;17.168;2023-04-15T02:40:22;23.63;;;16.73;;
10399;SDS011;10031;51.180;17.168;2023-04-15T02:42:48;23.23;;;17.17;;
10399;SDS011;10031;51.180;17.168;2023-04-15T02:45:25;22.87;;;17.70;;
10399;SDS011;10031;51.180;17.168;2023-04-15T02:47:52;26.10;;;18.60;;
10399;SDS011;10031;51.180;17.168;2023-04-15T02:50:25;22.60;;;17.23;;
10399;SDS011;10031;51.180;17.168;2023-04-15T02:52:55;24.73;;;17.33;;
10399;SDS011;10031;51.180;17.168;2023-04-15T02:55:21;24.60;;;17.40;;
10399;SDS011;10031;51.180;17.168;2023-04-15T02:57:48;21.73;;;17.07;;
10399;SDS011;10031;51.180;17.168;2023-04-15T03:00:19;23.70;;;17.57;;
10399;SDS011;10031;51.180;17.168;2023-04-15T03:02:49;24.23;;;17.60;;
10399;SDS011;10031;51.180;17.168;2023-04-15T03:05:20;23.40;;;17.20;;
10399;SDS011;10031;51.180;17.168;2023-04-15T03:07:50;22.93;;;16.73;;
10399;SDS011;10031;51.180;17.168;2023-04-15T03:10:18;26.63;;;18.27;;
10399;SDS011;10031;51.180;17.168;2023-04-15T03:12:48;24.23;;;17.37;;
10399;SDS011;10031;51.180;17.168;2023-04-15T03:15:14;29.73;;;18.83;;
10399;SDS011;10031;51.180;17.168;2023-04-15T03:17:41;23.73;;;16.93;;
10399;SDS011;10031;51.180;17.168;2023-04-15T03:20:08;22.53;;;17.43;;
10399;SDS011;10031;51.180;17.168;2023-04-15T03:22:34;24.93;;;16.20;;
10399;SDS011;10031;51.180;17.168;2023-04-15T03:25:03;23.70;;;16.60;;
10399;SDS011;10031;51.180;17.168;2023-04-15T03:27:30;21.50;;;16.43;;
10399;SDS011;10031;51.180;17.168;2023-04-15T03:30:01;20.47;;;15.70;;
10399;SDS011;10031;51.180;17.168;2023-04-15T03:32:35;21.93;;;15.77;;
10399;SDS011;10031;51.180;17.168;2023-04-15T03:35:00;23.43;;;16.00;;
10399;SDS011;10031;51.180;17.168;2023-04-15T03:37:26;23.80;;;15.43;;
10399;SDS011;10031;51.180;17.168;2023-04-15T03:39:52;22.27;;;15.80;;
10399;SDS011;10031;51.180;17.168;2023-04-15T03:42:20;22.20;;;15.07;;
10399;SDS011;10031;51.180;17.168;2023-04-15T03:44:46;18.33;;;13.83;;
10399;SDS011;10031;51.180;17.168;2023-04-15T03:47:17;19.00;;;12.83;;
10399;SDS011;10031;51.180;17.168;2023-04-15T03:49:43;20.17;;;13.23;;
10399;SDS011;10031;51.180;17.168;2023-04-15T03:52:11;17.17;;;12.93;;
10399;SDS011;10031;51.180;17.168;2023-04-15T03:54:37;16.63;;;12.00;;
10399;SDS011;10031;51.180;17.168;2023-04-15T03:57:03;15.77;;;11.97;;
10399;SDS011;10031;51.180;17.168;2023-04-15T03:59:32;14.73;;;10.57;;
10399;SDS011;10031;51.180;17.168;2023-04-15T04:02:03;18.53;;;12.37;;
10399;SDS011;10031;51.180;17.168;2023-04-15T04:04:29;15.43;;;11.97;;
10399;SDS011;10031;51.180;17.168;2023-04-15T04:06:55;14.17;;;10.53;;
10399;SDS011;10031;51.180;17.168;2023-04-15T04:09:25;14.43;;;10.73;;
10399;SDS011;10031;51.180;17.168;2023-04-15T04:11:53;13.63;;;9.87;;
10399;SDS011;10031;51.180;17.168;2023-04-15T04:14:20;15.30;;;10.47;;
10399;SDS011;10031;51.180;17.168;2023-04-15T04:16:54;13.30;;;10.27;;
10399;SDS011;10031;51.180;17.168;2023-04-15T04:19:22;12.00;;;8.97;;
10399;SDS011;10031;51.180;17.168;2023-04-15T04:21:48;9.93;;;7.70;;
10399;SDS011;10031;51.180;17.168;2023-04-15T04:24:14;9.37;;;7.20;;
10399;SDS011;10031;51.180;17.168;2023-04-15T04:26:40;8.07;;;6.20;;
10399;SDS011;10031;51.180;17.168;2023-04-15T04:29:07;8.70;;;5.37;;
10399;SDS011;10031;51.180;17.168;2023-04-15T04:31:33;5.73;;;4.90;;
10399;SDS011;10031;51.180;17.168;2023-04-15T04:33:59;4.03;;;3.40;;
10399;SDS011;10031;51.180;17.168;2023-04-15T04:36:25;3.50;;;3.20;;
10399;SDS011;10031;51.180;17.168;2023-04-15T04:38:53;3.80;;;2.77;;
10399;SDS011;10031;51.180;17.168;2023-04-15T04:41:29;3.10;;;2.70;;
10399;SDS011;10031;51.180;17.168;2023-04-15T04:43:56;3.17;;;2.73;;
10399;SDS011;10031;51.180;17.168;2023-04-15T04:46:22;2.70;;;2.50;;
10399;SDS011;10031;51.180;17.168;2023-04-15T04:48:48;4.63;;;2.83;;
10399;SDS011;10031;51.180;17.168;2023-04-15T04:51:15;3.13;;;2.83;;
10399;SDS011;10031;51.180;17.168;2023-04-15T04:53:41;6.20;;;3.73;;
10399;SDS011;10031;51.180;17.168;2023-04-15T04:56:08;3.57;;;2.87;;
10399;SDS011;10031;51.180;17.168;2023-04-15T04:58:34;2.73;;;2.47;;
10399;SDS011;10031;51.180;17.168;2023-04-15T05:01:00;2.70;;;2.50;;
10399;SDS011;10031;51.180;17.168;2023-04-15T05:03:27;3.27;;;2.70;;
10399;SDS011;10031;51.180;17.168;2023-04-15T05:05:54;2.47;;;2.27;;
10399;SDS011;10031;51.180;17.168;2023-04-15T05:08:20;2.77;;;2.57;;
10399;SDS011;10031;51.180;17.168;2023-04-15T05:10:46;2.57;;;2.37;;
10399;SDS011;10031;51.180;17.168;2023-04-15T05:13:12;2.60;;;2.40;;
10399;SDS011;10031;51.180;17.168;2023-04-15T05:15:42;2.40;;;2.20;;
10399;SDS011;10031;51.180;17.168;2023-04-15T05:18:11;4.70;;;2.20;;
10399;SDS011;10031;51.180;17.168;2023-04-15T05:20:38;2.70;;;2.50;;
10399;SDS011;10031;51.180;17.168;2023-04-15T05:23:24;2.43;;;2.23;;
10399;SDS011;10031;51.180;17.168;2023-04-15T05:25:50;2.47;;;2.27;;
10399;SDS011;10031;51.180;17.168;2023-04-15T05:28:16;2.20;;;2.00;;
10399;SDS011;10031;51.180;17.168;2023-04-15T05:30:43;2.20;;;2.00;;
10399;SDS011;10031;51.180;17.168;2023-04-15T05:33:10;2.40;;;2.20;;
10399;SDS011;10031;51.180;17.168;2023-04-15T05:35:38;2.40;;;2.20;;
10399;SDS011;10031;51.180;17.168;2023-04-15T05:38:04;2.23;;;2.03;;
10399;SDS011;10031;51.180;17.168;2023-04-15T05:40:30;2.37;;;2.17;;
10399;SDS011;10031;51.180;17.168;2023-04-15T05:42:56;2.40;;;2.20;;
10399;SDS011;10031;51.180;17.168;2023-04-15T05:45:23;2.47;;;2.27;;
10399;SDS011;10031;51.180;17.168;2023-04-15T05:47:53;3.23;;;2.23;;
10399;SDS011;10031;51.180;17.168;2023-04-15T05:50:19;6.10;;;2.30;;
10399;SDS011;10031;51.180;17.168;2023-04-15T05:52:46;2.13;;;1.93;;
10399;SDS011;10031;51.180;17.168;2023-04-15T05:55:11;2.60;;;2.17;;
10399;SDS011;10031;51.180;17.168;2023-04-15T05:57:38;2.20;;;2.00;;
10399;SDS011;10031;51.180;17.168;2023-04-15T06:00:07;3.00;;;2.10;;
10399;SDS011;10031;51.180;17.168;2023-04-15T06:02:33;2.17;;;1.90;;
10399;SDS011;10031;51.180;17.168;2023-04-15T06:04:59;2.10;;;1.90;;
10399;SDS011;10031;51.180;17.168;2023-04-15T06:07:25;1.97;;;1.80;;
10399;SDS011;10031;51.180;17.168;2023-04-15T06:09:52;1.80;;;1.70;;
10399;SDS011;10031;51.180;17.168;2023-04-15T06:12:18;3.93;;;1.87;;
10399;SDS011;10031;51.180;17.168;2023-04-15T06:14:45;2.20;;;1.73;;
10399;SDS011;10031;51.180;17.168;2023-04-15T06:17:11;2.63;;;2.00;;
10399;SDS011;10031;51.180;17.168;2023-04-15T06:19:39;2.00;;;1.77;;
10399;SDS011;10031;51.180;17.168;2023-04-15T06:22:06;2.27;;;2.07;;
10399;SDS011;10031;51.180;17.168;2023-04-15T06:24:33;2.03;;;1.70;;
10399;SDS011;10031;51.180;17.168;2023-04-15T06:27:01;2.53;;;2.33;;
10399;SDS011;10031;51.180;17.168;2023-04-15T06:29:46;2.30;;;2.10;;
10399;SDS011;10031;51.180;17.168;2023-04-15T06:32:19;5.20;;;2.37;;
10399;SDS011;10031;51.180;17.168;2023-04-15T06:34:47;3.20;;;2.40;;
10399;SDS011;10031;51.180;17.168;2023-04-15T06:37:16;3.20;;;2.60;;
10399;SDS011;10031;51.180;17.168;2023-04-15T06:39:41;3.47;;;2.40;;
10399;SDS011;10031;51.180;17.168;2023-04-15T06:42:10;3.10;;;2.57;;
10399;SDS011;10031;51.180;17.168;2023-04-15T06:44:36;5.20;;;2.40;;
10399;SDS011;10031;51.180;17.168;2023-04-15T06:47:02;2.97;;;2.00;;
10399;SDS011;10031;51.180;17.168;2023-04-15T06:49:28;1.90;;;1.80;;
10399;SDS011;10031;51.180;17.168;2023-04-15T06:51:56;2.80;;;1.90;;
10399;SDS011;10031;51.180;17.168;2023-04-15T06:54:22;2.30;;;2.10;;
10399;SDS011;10031;51.180;17.168;2023-04-15T06:56:50;2.43;;;1.90;;
10399;SDS011;10031;51.180;17.168;2023-04-15T06:59:18;2.60;;;2.40;;
10399;SDS011;10031;51.180;17.168;2023-04-15T07:01:44;2.70;;;2.23;;
10399;SDS011;10031;51.180;17.168;2023-04-15T07:04:11;3.43;;;2.23;;
10399;SDS011;10031;51.180;17.168;2023-04-15T07:06:40;2.63;;;2.10;;
10399;SDS011;10031;51.180;17.168;2023-04-15T07:09:06;3.80;;;2.60;;
10399;SDS011;10031;51.180;17.168;2023-04-15T07:11:32;3.27;;;2.63;;
10399;SDS011;10031;51.180;17.168;2023-04-15T07:14:02;3.00;;;2.70;;
10399;SDS011;10031;51.180;17.168;2023-04-15T07:16:29;5.43;;;2.93;;
10399;SDS011;10031;51.180;17.168;2023-04-15T07:19:05;3.23;;;2.70;;
10399;SDS011;10031;51.180;17.168;2023-04-15T07:21:56;3.20;;;2.60;;
10399;SDS011;10031;51.180;17.168;2023-04-15T07:24:23;4.17;;;2.70;;
10399;SDS011;10031;51.180;17.168;2023-04-15T07:27:09;3.33;;;2.53;;
10399;SDS011;10031;51.180;17.168;2023-04-15T07:29:39;3.67;;;2.80;;
10399;SDS011;10031;51.180;17.168;2023-04-15T07:32:05;2.83;;;2.53;;
10399;SDS011;10031;51.180;17.168;2023-04-15T07:34:38;3.10;;;2.80;;
10399;SDS011;10031;51.180;17.168;2023-04-15T07:37:04;4.23;;;2.87;;
10399;SDS011;10031;51.180;17.168;2023-04-15T07:39:30;3.07;;;2.33;;
10399;SDS011;10031;51.180;17.168;2023-04-15T07:42:02;4.03;;;2.20;;
10399;SDS011;10031;51.180;17.168;2023-04-15T07:44:29;3.23;;;2.20;;
10399;SDS011;10031;51.180;17.168;2023-04-15T07:47:00;2.77;;;2.13;;
10399;SDS011;10031;51.180;17.168;2023-04-15T07:49:40;2.10;;;1.93;;
10399;SDS011;10031;51.180;17.168;2023-04-15T07:52:08;2.20;;;2.00;;
10399;SDS011;10031;51.180;17.168;2023-04-15T07:54:35;2.17;;;2.00;;
10399;SDS011;10031;51.180;17.168;2023-04-15T07:57:07;2.60;;;2.17;;
10399;SDS011;10031;51.180;17.168;2023-04-15T07:59:47;2.10;;;1.90;;
10399;SDS011;10031;51.180;17.168;2023-04-15T08:02:13;2.43;;;2.17;;
10399;SDS011;10031;51.180;17.168;2023-04-15T08:04:42;4.13;;;2.03;;
10399;SDS011;10031;51.180;17.168;2023-04-15T08:07:11;1.80;;;1.70;;
10399;SDS011;10031;51.180;17.168;2023-04-15T08:09:41;1.70;;;1.60;;
10399;SDS011;10031;51.180;17.168;2023-04-15T08:12:07;3.70;;;2.10;;
10399;SDS011;10031;51.180;17.168;2023-04-15T08:14:36;4.47;;;2.20;;
10399;SDS011;10031;51.180;17.168;2023-04-15T08:17:02;2.40;;;2.20;;
10399;SDS011;10031;51.180;17.168;2023-04-15T08:19:28;2.20;;;2.00;;
10399;SDS011;10031;51.180;17.168;2023-04-15T08:21:58;2.50;;;1.90;;
10399;SDS011;10031;51.180;17.168;2023-04-15T08:24:25;4.57;;;2.17;;
10399;SDS011;10031;51.180;17.168;2023-04-15T08:26:51;2.00;;;1.90;;
10399;SDS011;10031;51.180;17.168;2023-04-15T08:29:18;1.70;;;1.30;;
10399;SDS011;10031;51.180;17.168;2023-04-15T08:31:43;2.50;;;1.80;;
10399;SDS011;10031;51.180;17.168;2023-04-15T08:34:14;2.17;;;1.80;;
10399;SDS011;10031;51.180;17.168;2023-04-15T08:36:43;1.70;;;1.60;;
10399;SDS011;10031;51.180;17.168;2023-04-15T08:39:10;2.72;;;1.75;;
10399;SDS011;10031;51.180;17.168;2023-04-15T08:44:22;1.50;;;1.40;;
10399;SDS011;10031;51.180;17.168;2023-04-15T08:46:55;1.73;;;1.60;;
10399;SDS011;10031;51.180;17.168;2023-04-15T08:49:21;1.90;;;1.70;;
10399;SDS011;10031;51.180;17.168;2023-04-15T08:51:53;2.35;;;1.98;;
10399;SDS011;10031;51.180;17.168;2023-04-15T08:54:27;2.78;;;1.70;;
10399;SDS011;10031;51.180;17.168;2023-04-15T08:57:15;1.98;;;1.80;;
10399;SDS011;10031;51.180;17.168;2023-04-15T08:59:45;1.70;;;1.60;;
10399;SDS011;10031;51.180;17.168;2023-04-15T09:02:19;2.72;;;2.10;;
10399;SDS011;10031;51.180;17.168;2023-04-15T09:04:54;1.92;;;1.75;;
10399;SDS011;10031;51.180;17.168;2023-04-15T09:07:23;2.28;;;1.60;;
10399;SDS011;10031;51.180;17.168;2023-04-15T09:09:53;1.65;;;1.40;;
10399;SDS011;10031;51.180;17.168;2023-04-15T09:12:19;1.95;;;1.50;;
10399;SDS011;10031;51.180;17.168;2023-04-15T09:14:51;1.80;;;1.60;;
10399;SDS011;10031;51.180;17.168;2023-04-15T09:17:21;1.70;;;1.60;;
10399;SDS011;10031;51.180;17.168;2023-04-15T09:19:48;1.33;;;1.23;;
10399;SDS011;10031;51.180;17.168;2023-04-15T09:22:31;1.45;;;1.35;;
10399;SDS011;10031;51.180;17.168;2023-04-15T09:24:58;1.85;;;1.75;;
10399;SDS011;10031;51.180;17.168;2023-04-15T09:27:24;1.75;;;1.40;;
10399;SDS011;10031;51.180;17.168;2023-04-15T09:29:50;2.75;;;1.40;;
10399;SDS011;10031;51.180;17.168;2023-04-15T09:32:18;1.30;;;1.20;;
10399;SDS011;10031;51.180;17.168;2023-04-15T09:34:45;1.77;;;1.10;;
10399;SDS011;10031;51.180;17.168;2023-04-15T09:37:12;2.53;;;1.40;;
10399;SDS011;10031;51.180;17.168;2023-04-15T09:39:49;1.20;;;1.10;;
10399;SDS011;10031;51.180;17.168;2023-04-15T09:42:19;1.08;;;0.95;;
10399;SDS011;10031;51.180;17.168;2023-04-15T09:44:50;1.17;;;1.08;;
10399;SDS011;10031;51.180;17.168;2023-04-15T09:47:26;0.85;;;0.85;;
10399;SDS011;10031;51.180;17.168;2023-04-15T09:52:39;3.97;;;2.17;;
10399;SDS011;10031;51.180;17.168;2023-04-15T09:57:57;1.40;;;1.10;;
10399;SDS011;10031;51.180;17.168;2023-04-15T10:00:23;1.20;;;1.10;;
10399;SDS011;10031;51.180;17.168;2023-04-15T10:02:49;1.17;;;1.10;;
10399;SDS011;10031;51.180;17.168;2023-04-15T10:05:15;2.13;;;1.10;;
10399;SDS011;10031;51.180;17.168;2023-04-15T10:07:43;0.98;;;0.98;;
10399;SDS011;10031;51.180;17.168;2023-04-15T10:10:09;0.90;;;0.90;;
10399;SDS011;10031;51.180;17.168;2023-04-15T10:12:37;0.70;;;0.70;;
10399;SDS011;10031;51.180;17.168;2023-04-15T10:15:05;0.70;;;0.70;;
10399;SDS011;10031;51.180;17.168;2023-04-15T10:17:37;0.77;;;0.77;;
10399;SDS011;10031;51.180;17.168;2023-04-15T10:20:06;0.93;;;0.90;;
10399;SDS011;10031;51.180;17.168;2023-04-15T10:22:34;0.70;;;0.70;;
10399;SDS011;10031;51.180;17.168;2023-04-15T10:25:01;0.68;;;0.63;;
10399;SDS011;10031;51.180;17.168;2023-04-15T10:27:29;0.80;;;0.80;;
10399;SDS011;10031;51.180;17.168;2023-04-15T10:29:55;0.77;;;0.77;;
10399;SDS011;10031;51.180;17.168;2023-04-15T10:32:24;0.77;;;0.77;;
10399;SDS011;10031;51.180;17.168;2023-04-15T10:34:50;0.82;;;0.82;;
10399;SDS011;10031;51.180;17.168;2023-04-15T10:37:21;0.70;;;0.70;;
10399;SDS011;10031;51.180;17.168;2023-04-15T10:39:57;0.85;;;0.80;;
10399;SDS011;10031;51.180;17.168;2023-04-15T10:42:23;0.80;;;0.80;;
10399;SDS011;10031;51.180;17.168;2023-04-15T10:44:49;0.68;;;0.68;;
10399;SDS011;10031;51.180;17.168;2023-04-15T10:47:19;1.08;;;0.98;;
10399;SDS011;10031;51.180;17.168;2023-04-15T10:52:31;1.73;;;1.10;;
10399;SDS011;10031;51.180;17.168;2023-04-15T10:55:17;2.00;;;0.98;;
10399;SDS011;10031;51.180;17.168;2023-04-15T10:57:45;0.90;;;0.90;;
10399;SDS011;10031;51.180;17.168;2023-04-15T11:00:15;0.80;;;0.80;;
10399;SDS011;10031;51.180;17.168;2023-04-15T11:02:55;0.80;;;0.80;;
10399;SDS011;10031;51.180;17.168;2023-04-15T11:08:03;1.70;;;0.80;;
10399;SDS011;10031;51.180;17.168;2023-04-15T11:12:56;0.90;;;0.90;;
10399;SDS011;10031;51.180;17.168;2023-04-15T11:15:27;0.60;;;0.60;;
10399;SDS011;10031;51.180;17.168;2023-04-15T11:17:56;0.80;;;0.80;;
10399;SDS011;10031;51.180;17.168;2023-04-15T11:20:25;1.38;;;0.80;;
10399;SDS011;10031;51.180;17.168;2023-04-15T11:22:52;0.82;;;0.80;;
10399;SDS011;10031;51.180;17.168;2023-04-15T11:25:24;0.95;;;0.90;;
10399;SDS011;10031;51.180;17.168;2023-04-15T11:27:52;0.82;;;0.70;;
10399;SDS011;10031;51.180;17.168;2023-04-15T11:30:26;0.70;;;0.70;;
10399;SDS011;10031;51.180;17.168;2023-04-15T11:33:01;0.73;;;0.70;;
10399;SDS011;10031;51.180;17.168;2023-04-15T11:35:28;0.80;;;0.80;;
10399;SDS011;10031;51.180;17.168;2023-04-15T11:37:55;0.90;;;0.90;;
10399;SDS011;10031;51.180;17.168;2023-04-15T11:40:30;0.80;;;0.80;;
10399;SDS011;10031;51.180;17.168;2023-04-15T11:43:06;0.80;;;0.80;;
10399;SDS011;10031;51.180;17.168;2023-04-15T11:45:33;0.90;;;0.90;;
10399;SDS011;10031;51.180;17.168;2023-04-15T11:48:15;0.75;;;0.75;;
10399;SDS011;10031;51.180;17.168;2023-04-15T11:50:41;0.80;;;0.80;;
10399;SDS011;10031;51.180;17.168;2023-04-15T11:53:08;0.85;;;0.80;;
10399;SDS011;10031;51.180;17.168;2023-04-15T11:55:45;0.80;;;0.80;;
10399;SDS011;10031;51.180;17.168;2023-04-15T12:03:26;1.10;;;0.90;;
10399;SDS011;10031;51.180;17.168;2023-04-15T12:06:02;0.85;;;0.75;;
10399;SDS011;10031;51.180;17.168;2023-04-15T12:09:08;0.95;;;0.95;;
10399;SDS011;10031;51.180;17.168;2023-04-15T12:11:48;1.10;;;1.00;;
10399;SDS011;10031;51.180;17.168;2023-04-15T12:14:25;2.25;;;1.52;;
10399;SDS011;10031;51.180;17.168;2023-04-15T12:17:02;2.67;;;1.60;;
10399;SDS011;10031;51.180;17.168;2023-04-15T12:24:28;1.13;;;1.02;;
10399;SDS011;10031;51.180;17.168;2023-04-15T12:26:56;0.80;;;0.80;;
10399;SDS011;10031;51.180;17.168;2023-04-15T12:29:31;1.00;;;1.00;;
10399;SDS011;10031;51.180;17.168;2023-04-15T12:34:37;0.95;;;0.80;;
10399;SDS011;10031;51.180;17.168;2023-04-15T12:37:11;0.90;;;0.90;;
10399;SDS011;10031;51.180;17.168;2023-04-15T12:39:44;1.00;;;1.00;;
10399;SDS011;10031;51.180;17.168;2023-04-15T12:42:13;0.85;;;0.85;;
10399;SDS011;10031;51.180;17.168;2023-04-15T12:44:40;0.88;;;0.88;;
10399;SDS011;10031;51.180;17.168;2023-04-15T12:47:08;0.90;;;0.90;;
10399;SDS011;10031;51.180;17.168;2023-04-15T12:49:42;0.93;;;0.85;;
10399;SDS011;10031;51.180;17.168;2023-04-15T12:52:08;1.30;;;0.95;;
10399;SDS011;10031;51.180;17.168;2023-04-15T12:54:34;1.50;;;1.00;;
10399;SDS011;10031;51.180;17.168;2023-04-15T12:57:01;0.80;;;0.80;;
10399;SDS011;10031;51.180;17.168;2023-04-15T12:59:27;1.20;;;1.10;;
10399;SDS011;10031;51.180;17.168;2023-04-15T13:01:53;0.80;;;0.80;;
10399;SDS011;10031;51.180;17.168;2023-04-15T13:04:19;0.90;;;0.90;;
10399;SDS011;10031;51.180;17.168;2023-04-15T13:06:49;1.77;;;0.80;;
10399;SDS011;10031;51.180;17.168;2023-04-15T13:09:23;0.90;;;0.90;;
10399;SDS011;10031;51.180;17.168;2023-04-15T13:11:54;1.20;;;1.10;;
10399;SDS011;10031;51.180;17.168;2023-04-15T13:14:23;1.05;;;1.00;;
10399;SDS011;10031;51.180;17.168;2023-04-15T13:16:51;1.55;;;1.00;;
10399;SDS011;10031;51.180;17.168;2023-04-15T13:19:18;0.90;;;0.90;;
10399;SDS011;10031;51.180;17.168;2023-04-15T13:21:50;1.05;;;1.00;;
10399;SDS011;10031;51.180;17.168;2023-04-15T13:24:20;0.90;;;0.90;;
10399;SDS011;10031;51.180;17.168;2023-04-15T13:26:46;1.05;;;1.00;;
10399;SDS011;10031;51.180;17.168;2023-04-15T13:29:21;1.20;;;1.10;;
10399;SDS011;10031;51.180;17.168;2023-04-15T13:31:57;1.10;;;1.00;;
10399;SDS011;10031;51.180;17.168;2023-04-15T13:34:28;1.27;;;1.17;;
10399;SDS011;10031;51.180;17.168;2023-04-15T13:37:08;1.73;;;1.10;;
10399;SDS011;10031;51.180;17.168;2023-04-15T13:39:35;2.28;;;1.00;;
10399;SDS011;10031;51.180;17.168;2023-04-15T13:42:02;0.88;;;0.88;;
10399;SDS011;10031;51.180;17.168;2023-04-15T13:44:33;1.02;;;0.98;;
10399;SDS011;10031;51.180;17.168;2023-04-15T13:46:59;1.15;;;1.05;;
10399;SDS011;10031;51.180;17.168;2023-04-15T13:49:25;1.05;;;0.95;;
10399;SDS011;10031;51.180;17.168;2023-04-15T13:51:51;1.00;;;1.00;;
10399;SDS011;10031;51.180;17.168;2023-04-15T13:54:19;1.17;;;1.05;;
10399;SDS011;10031;51.180;17.168;2023-04-15T13:56:44;1.05;;;0.95;;
10399;SDS011;10031;51.180;17.168;2023-04-15T13:59:11;0.90;;;0.90;;
10399;SDS011;10031;51.180;17.168;2023-04-15T14:01:38;1.10;;;1.00;;
10399;SDS011;10031;51.180;17.168;2023-04-15T14:04:05;1.10;;;1.00;;
10399;SDS011;10031;51.180;17.168;2023-04-15T14:06:38;1.20;;;1.10;;
10399;SDS011;10031;51.180;17.168;2023-04-15T14:09:04;0.90;;;0.90;;
10399;SDS011;10031;51.180;17.168;2023-04-15T14:11:33;1.05;;;0.98;;
10399;SDS011;10031;51.180;17.168;2023-04-15T14:14:01;1.15;;;1.05;;
10399;SDS011;10031;51.180;17.168;2023-04-15T14:16:36;2.28;;;1.30;;
10399;SDS011;10031;51.180;17.168;2023-04-15T14:19:09;2.05;;;1.20;;
10399;SDS011;10031;51.180;17.168;2023-04-15T14:21:35;2.45;;;1.20;;
10399;SDS011;10031;51.180;17.168;2023-04-15T14:24:03;1.20;;;1.00;;
10399;SDS011;10031;51.180;17.168;2023-04-15T14:26:31;2.40;;;1.40;;
10399;SDS011;10031;51.180;17.168;2023-04-15T14:28:57;2.05;;;1.20;;
10399;SDS011;10031;51.180;17.168;2023-04-15T14:31:23;1.92;;;1.30;;
10399;SDS011;10031;51.180;17.168;2023-04-15T14:33:50;1.13;;;1.02;;
10399;SDS011;10031;51.180;17.168;2023-04-15T14:36:15;1.35;;;1.25;;
10399;SDS011;10031;51.180;17.168;2023-04-15T14:38:43;2.00;;;1.40;;
10399;SDS011;10031;51.180;17.168;2023-04-15T14:41:10;1.60;;;1.20;;
10399;SDS011;10031;51.180;17.168;2023-04-15T14:43:36;2.40;;;1.63;;
10399;SDS011;10031;51.180;17.168;2023-04-15T14:46:06;2.75;;;1.60;;
10399;SDS011;10031;51.180;17.168;2023-04-15T14:48:37;1.92;;;1.52;;
10399;SDS011;10031;51.180;17.168;2023-04-15T14:51:06;1.60;;;1.27;;
10399;SDS011;10031;51.180;17.168;2023-04-15T14:53:35;1.55;;;1.30;;
10399;SDS011;10031;51.180;17.168;2023-04-15T14:56:06;1.65;;;1.30;;
10399;SDS011;10031;51.180;17.168;2023-04-15T14:58:45;2.20;;;1.50;;
10399;SDS011;10031;51.180;17.168;2023-04-15T15:01:12;1.60;;;1.50;;
10399;SDS011;10031;51.180;17.168;2023-04-15T15:03:40;2.60;;;1.45;;